createdAt,value
2019-02-23T00:00:18.318Z,40.37
2019-02-23T00:01:20.238Z,40.37
2019-02-23T00:02:18.294Z,40.37
2019-02-23T00:03:18.675Z,40.36
2019-02-23T00:04:18.412Z,40.37
2019-02-23T00:05:18.712Z,40.36
2019-02-23T00:06:30.169Z,40.39
2019-02-23T00:07:18.913Z,40.4
2019-02-23T00:08:18.330Z,40.36
2019-02-23T00:09:18.598Z,40.37
2019-02-23T00:10:19.247Z,40.33
2019-02-23T00:11:18.928Z,40.36
2019-02-23T00:12:18.421Z,40.34
2019-02-23T00:13:18.613Z,40.38
2019-02-23T00:14:18.296Z,40.37
2019-02-23T00:15:18.363Z,40.36
2019-02-23T00:16:20.292Z,40.39
2019-02-23T00:17:18.759Z,40.37
2019-02-23T00:18:18.697Z,40.38
2019-02-23T00:19:25.323Z,40.41
2019-02-23T00:20:18.332Z,40.39
2019-02-23T00:21:18.627Z,40.42
2019-02-23T00:22:18.697Z,40.33
2019-02-23T00:23:18.723Z,40.42
2019-02-23T00:24:18.903Z,40.42
2019-02-23T00:25:18.607Z,40.44
2019-02-23T00:26:18.244Z,40.33
2019-02-23T00:27:18.733Z,40.38
2019-02-23T00:28:18.678Z,40.4
2019-02-23T00:29:18.671Z,40.37
2019-02-23T00:30:18.650Z,40.37
2019-02-23T00:31:18.384Z,40.42
2019-02-23T00:32:19.055Z,40.34
2019-02-23T00:33:19.609Z,40.41
2019-02-23T00:34:19.153Z,40.32
2019-02-23T00:35:19.023Z,40.33
2019-02-23T00:36:18.825Z,40.39
2019-02-23T00:37:18.717Z,40.36
2019-02-23T00:38:18.235Z,40.35
2019-02-23T00:39:18.071Z,40.37
2019-02-23T00:40:18.224Z,40.35
2019-02-23T00:41:18.523Z,40.4
2019-02-23T00:42:18.533Z,40.38
2019-02-23T00:43:18.644Z,40.38
2019-02-23T00:44:19.076Z,40.41
2019-02-23T00:45:18.232Z,40.31
2019-02-23T00:46:18.681Z,40.33
2019-02-23T00:47:18.351Z,40.37
2019-02-23T00:48:18.234Z,40.38
2019-02-23T00:49:18.709Z,40.33
2019-02-23T00:50:18.692Z,40.4
2019-02-23T00:51:18.513Z,40.39
2019-02-23T00:52:18.692Z,40.34
2019-02-23T00:53:18.320Z,40.41
2019-02-23T00:54:19.237Z,40.41
2019-02-23T00:55:18.580Z,40.34
2019-02-23T00:56:18.357Z,40.32
2019-02-23T00:57:18.634Z,40.36
2019-02-23T00:58:18.954Z,40.33
2019-02-23T00:59:18.671Z,40.34
2019-02-23T01:00:18.607Z,40.35
2019-02-23T01:01:18.292Z,40.33
2019-02-23T01:02:18.283Z,40.34
2019-02-23T01:03:18.591Z,40.38
2019-02-23T01:04:18.692Z,40.36
2019-02-23T01:05:18.181Z,40.35
2019-02-23T01:06:20.134Z,40.33
2019-02-23T01:07:18.892Z,40.32
2019-02-23T01:08:18.733Z,40.41
2019-02-23T01:09:18.203Z,40.28
2019-02-23T01:10:19.779Z,40.35
2019-02-23T01:11:18.331Z,40.31
2019-02-23T01:12:18.451Z,40.34
2019-02-23T01:13:18.349Z,40.33
2019-02-23T01:14:18.458Z,40.33
2019-02-23T01:15:19.254Z,40.38
2019-02-23T01:16:19.002Z,40.37
2019-02-23T01:17:18.244Z,40.38
2019-02-23T01:18:18.785Z,40.39
2019-02-23T01:19:18.504Z,40.39
2019-02-23T01:20:18.695Z,40.38
2019-02-23T01:21:18.726Z,40.37
2019-02-23T01:22:18.433Z,40.41
2019-02-23T01:23:20.463Z,40.36
2019-02-23T01:24:18.706Z,40.37
2019-02-23T01:25:18.612Z,40.38
2019-02-23T01:26:18.643Z,40.38
2019-02-23T01:27:18.842Z,40.36
2019-02-23T01:28:18.151Z,40.35
2019-02-23T01:29:18.367Z,40.32
2019-02-23T01:30:18.669Z,40.39
2019-02-23T01:31:18.673Z,40.38
2019-02-23T01:32:18.392Z,40.31
2019-02-23T01:33:18.886Z,40.38
2019-02-23T01:34:18.658Z,40.34
2019-02-23T01:35:18.693Z,40.35
2019-02-23T01:36:18.403Z,40.35
2019-02-23T01:37:18.939Z,40.33
2019-02-23T01:38:20.248Z,40.36
2019-02-23T01:39:18.150Z,40.39
2019-02-23T01:40:18.654Z,40.35
2019-02-23T01:41:18.624Z,40.35
2019-02-23T01:42:18.139Z,40.34
2019-02-23T01:43:18.687Z,40.33
2019-02-23T01:44:18.294Z,40.32
2019-02-23T01:45:18.248Z,40.34
2019-02-23T01:46:18.567Z,40.34
2019-02-23T01:47:18.697Z,40.35
2019-02-23T01:48:18.368Z,40.33
2019-02-23T01:49:18.337Z,40.31
2019-02-23T01:50:18.398Z,40.3
2019-02-23T01:51:18.231Z,40.31
2019-02-23T01:52:18.288Z,40.32
2019-02-23T01:53:20.267Z,40.31
2019-02-23T01:54:18.334Z,40.31
2019-02-23T01:55:18.327Z,40.34
2019-02-23T01:56:18.418Z,40.36
2019-02-23T01:57:19.187Z,40.3
2019-02-23T01:58:19.278Z,40.33
2019-02-23T01:59:18.697Z,40.3
2019-02-23T02:00:18.330Z,40.31
2019-02-23T02:01:18.616Z,40.31
2019-02-23T02:02:18.134Z,40.33
2019-02-23T02:03:20.176Z,40.32
2019-02-23T02:04:18.804Z,40.29
2019-02-23T02:05:18.514Z,40.3
2019-02-23T02:06:18.313Z,40.25
2019-02-23T02:07:18.722Z,40.3
2019-02-23T02:08:18.263Z,40.33
2019-02-23T02:09:19.285Z,40.32
2019-02-23T02:10:19.098Z,40.32
2019-02-23T02:11:18.344Z,40.36
2019-02-23T02:12:18.346Z,40.3
2019-02-23T02:13:18.736Z,40.3
2019-02-23T02:14:18.682Z,40.27
2019-02-23T02:15:18.765Z,40.25
2019-02-23T02:16:19.099Z,40.25
2019-02-23T02:17:18.303Z,40.28
2019-02-23T02:18:18.388Z,40.26
2019-02-23T02:19:18.704Z,40.27
2019-02-23T02:20:18.940Z,40.25
2019-02-23T02:21:18.627Z,40.33
2019-02-23T02:22:18.323Z,40.28
2019-02-23T02:23:18.442Z,40.28
2019-02-23T02:24:18.746Z,40.32
2019-02-23T02:25:18.948Z,40.22
2019-02-23T02:26:18.458Z,40.21
2019-02-23T02:27:18.783Z,40.23
2019-02-23T02:28:18.655Z,40.26
2019-02-23T02:29:18.678Z,40.24
2019-02-23T02:30:18.623Z,40.24
2019-02-23T02:31:18.484Z,40.26
2019-02-23T02:32:20.145Z,40.22
2019-02-23T02:33:18.226Z,40.23
2019-02-23T02:34:18.416Z,40.21
2019-02-23T02:35:18.754Z,40.22
2019-02-23T02:36:18.431Z,40.19
2019-02-23T02:37:18.185Z,40.2
2019-02-23T02:38:18.769Z,40.19
2019-02-23T02:39:18.448Z,40.23
2019-02-23T02:40:18.403Z,40.26
2019-02-23T02:41:18.885Z,40.28
2019-02-23T02:42:18.838Z,40.24
2019-02-23T02:43:18.276Z,40.26
2019-02-23T02:44:18.704Z,40.23
2019-02-23T02:45:18.210Z,40.26
2019-02-23T02:46:18.402Z,40.24
2019-02-23T02:47:19.595Z,40.25
2019-02-23T02:48:18.408Z,40.27
2019-02-23T02:49:18.866Z,40.28
2019-02-23T02:50:24.925Z,40.26
2019-02-23T02:51:18.215Z,40.21
2019-02-23T02:52:18.659Z,40.27
2019-02-23T02:53:18.414Z,40.23
2019-02-23T02:54:18.478Z,40.26
2019-02-23T02:55:18.786Z,40.25
2019-02-23T02:56:19.099Z,40.23
2019-02-23T02:57:18.377Z,40.25
2019-02-23T02:58:18.680Z,40.23
2019-02-23T02:59:18.461Z,40.22
2019-02-23T03:00:18.525Z,40.2
2019-02-23T03:01:18.357Z,40.17
2019-02-23T03:02:18.744Z,40.23
2019-02-23T03:03:18.071Z,40.2
2019-02-23T03:04:18.693Z,40.21
2019-02-23T03:05:18.767Z,40.24
2019-02-23T03:06:18.848Z,40.2
2019-02-23T03:07:18.662Z,40.2
2019-02-23T03:08:18.601Z,40.21
2019-02-23T03:09:18.213Z,40.15
2019-02-23T03:10:18.788Z,40.18
2019-02-23T03:11:18.502Z,40.2
2019-02-23T03:12:18.701Z,40.21
2019-02-23T03:13:18.820Z,40.18
2019-02-23T03:14:18.204Z,40.25
2019-02-23T03:15:18.590Z,40.21
2019-02-23T03:16:18.361Z,40.23
2019-02-23T03:17:18.153Z,40.23
2019-02-23T03:18:18.220Z,40.2
2019-02-23T03:19:18.152Z,40.2
2019-02-23T03:20:18.183Z,40.18
2019-02-23T03:21:18.533Z,40.13
2019-02-23T03:22:19.987Z,40.18
2019-02-23T03:23:18.142Z,40.2
2019-02-23T03:24:18.194Z,40.19
2019-02-23T03:25:18.066Z,40.21
2019-02-23T03:26:20.180Z,40.19
2019-02-23T03:27:19.081Z,40.15
2019-02-23T03:28:18.686Z,40.14
2019-02-23T03:29:18.309Z,40.18
2019-02-23T03:30:18.623Z,40.16
2019-02-23T03:31:18.281Z,40.16
2019-02-23T03:32:18.218Z,40.15
2019-02-23T03:33:18.463Z,40.13
2019-02-23T03:34:18.250Z,40.19
2019-02-23T03:35:18.981Z,40.16
2019-02-23T03:36:18.090Z,40.16
2019-02-23T03:37:18.316Z,40.15
2019-02-23T03:38:18.603Z,40.16
2019-02-23T03:39:18.369Z,40.14
2019-02-23T03:40:18.476Z,40.15
2019-02-23T03:41:18.291Z,40.09
2019-02-23T03:42:18.303Z,40.21
2019-02-23T03:43:18.497Z,40.14
2019-02-23T03:44:18.135Z,40.17
2019-02-23T03:45:18.376Z,40.14
2019-02-23T03:46:18.943Z,40.12
2019-02-23T03:47:18.516Z,40.16
2019-02-23T03:48:18.251Z,40.17
2019-02-23T03:49:19.141Z,40.18
2019-02-23T03:50:18.440Z,40.2
2019-02-23T03:51:18.481Z,40.17
2019-02-23T03:52:19.213Z,40.12
2019-02-23T03:53:18.185Z,40.16
2019-02-23T03:54:18.683Z,40.14
2019-02-23T03:55:18.779Z,40.16
2019-02-23T03:56:18.353Z,40.14
2019-02-23T03:57:18.320Z,40.14
2019-02-23T03:58:18.727Z,40.12
2019-02-23T03:59:18.116Z,40.16
2019-02-23T04:00:18.236Z,40.18
2019-02-23T04:01:18.411Z,40.13
2019-02-23T04:02:18.808Z,40.15
2019-02-23T04:03:20.171Z,40.14
2019-02-23T04:04:18.643Z,40.16
2019-02-23T04:05:18.363Z,40.18
2019-02-23T04:06:18.210Z,40.1
2019-02-23T04:07:19.197Z,40.14
2019-02-23T04:08:18.880Z,40.14
2019-02-23T04:09:18.244Z,40.12
2019-02-23T04:10:20.008Z,40.18
2019-02-23T04:11:18.251Z,40.13
2019-02-23T04:12:18.926Z,40.08
2019-02-23T04:13:20.177Z,40.15
2019-02-23T04:14:18.619Z,40.1
2019-02-23T04:15:18.809Z,40.14
2019-02-23T04:16:18.167Z,40.13
2019-02-23T04:17:18.661Z,40.13
2019-02-23T04:18:18.574Z,40.11
2019-02-23T04:19:18.472Z,40.07
2019-02-23T04:20:18.317Z,40.13
2019-02-23T04:21:18.248Z,40.11
2019-02-23T04:22:18.786Z,40.13
2019-02-23T04:23:20.146Z,40.1
2019-02-23T04:24:18.378Z,40.08
2019-02-23T04:25:18.428Z,40.11
2019-02-23T04:26:18.343Z,40.1
2019-02-23T04:27:18.295Z,40.08
2019-02-23T04:28:18.539Z,40.1
2019-02-23T04:29:19.341Z,40.09
2019-02-23T04:30:18.264Z,40.1
2019-02-23T04:31:18.551Z,40.11
2019-02-23T04:32:18.632Z,40.1
2019-02-23T04:33:20.030Z,40.11
2019-02-23T04:34:18.559Z,40.09
2019-02-23T04:35:18.342Z,40.1
2019-02-23T04:36:18.295Z,40.09
2019-02-23T04:37:18.391Z,40.1
2019-02-23T04:38:18.919Z,40.1
2019-02-23T04:39:18.586Z,40.06
2019-02-23T04:40:18.423Z,40.05
2019-02-23T04:41:18.601Z,40.01
2019-02-23T04:42:18.257Z,39.98
2019-02-23T04:43:18.907Z,40.04
2019-02-23T04:44:18.475Z,39.99
2019-02-23T04:45:18.358Z,40.05
2019-02-23T04:46:18.742Z,40.05
2019-02-23T04:47:18.089Z,40.02
2019-02-23T04:48:18.394Z,40.03
2019-02-23T04:49:18.658Z,40.02
2019-02-23T04:50:19.396Z,40.02
2019-02-23T04:51:19.080Z,40.04
2019-02-23T04:52:18.712Z,40.03
2019-02-23T04:53:18.193Z,40.01
2019-02-23T04:54:18.522Z,39.97
2019-02-23T04:55:18.498Z,39.99
2019-02-23T04:56:20.073Z,39.99
2019-02-23T04:57:18.324Z,40.05
2019-02-23T04:58:19.942Z,40.06
2019-02-23T04:59:18.449Z,40.09
2019-02-23T05:00:18.407Z,40.08
2019-02-23T05:01:18.434Z,40.05
2019-02-23T05:02:18.790Z,40.03
2019-02-23T05:03:19.159Z,39.99
2019-02-23T05:04:19.884Z,40
2019-02-23T05:05:18.582Z,39.98
2019-02-23T05:06:18.336Z,40
2019-02-23T05:07:18.241Z,39.93
2019-02-23T05:08:18.449Z,39.87
2019-02-23T05:09:18.828Z,39.93
2019-02-23T05:10:18.502Z,39.91
2019-02-23T05:11:18.340Z,39.89
2019-02-23T05:12:18.375Z,39.89
2019-02-23T05:13:18.236Z,39.91
2019-02-23T05:14:18.740Z,39.91
2019-02-23T05:15:18.252Z,39.88
2019-02-23T05:16:18.443Z,39.94
2019-02-23T05:17:18.707Z,39.9
2019-02-23T05:18:18.493Z,39.91
2019-02-23T05:19:18.561Z,39.91
2019-02-23T05:20:18.677Z,39.81
2019-02-23T05:21:27.034Z,39.91
2019-02-23T05:22:18.300Z,39.89
2019-02-23T05:23:18.701Z,39.97
2019-02-23T05:24:18.575Z,39.93
2019-02-23T05:25:18.189Z,39.95
2019-02-23T05:26:18.645Z,39.96
2019-02-23T05:27:18.130Z,39.97
2019-02-23T05:28:18.883Z,39.89
2019-02-23T05:29:18.024Z,39.93
2019-02-23T05:30:18.439Z,39.93
2019-02-23T05:31:18.301Z,39.97
2019-02-23T05:32:18.246Z,39.96
2019-02-23T05:33:18.983Z,39.96
2019-02-23T05:34:18.104Z,39.99
2019-02-23T05:35:18.396Z,39.95
2019-02-23T05:36:18.340Z,40.01
2019-02-23T05:37:18.593Z,39.96
2019-02-23T05:38:18.107Z,39.93
2019-02-23T05:39:18.324Z,39.86
2019-02-23T05:40:18.484Z,39.97
2019-02-23T05:41:18.150Z,39.91
2019-02-23T05:42:18.518Z,39.9
2019-02-23T05:43:18.452Z,39.92
2019-02-23T05:44:18.231Z,39.97
2019-02-23T05:45:18.686Z,39.87
2019-02-23T05:46:18.501Z,39.92
2019-02-23T05:47:18.583Z,39.9
2019-02-23T05:48:18.440Z,39.85
2019-02-23T05:49:18.571Z,39.86
2019-02-23T05:50:18.253Z,39.91
2019-02-23T05:51:18.312Z,39.89
2019-02-23T05:52:18.181Z,39.91
2019-02-23T05:53:18.260Z,39.84
2019-02-23T05:54:18.343Z,39.8
2019-02-23T05:55:20.031Z,39.92
2019-02-23T05:56:18.357Z,39.86
2019-02-23T05:57:18.438Z,39.79
2019-02-23T05:58:18.050Z,39.79
2019-02-23T05:59:18.481Z,39.83
2019-02-23T06:00:18.364Z,39.77
2019-02-23T06:01:18.553Z,39.82
2019-02-23T06:02:18.301Z,39.83
2019-02-23T06:03:19.913Z,39.72
2019-02-23T06:04:19.937Z,39.8
2019-02-23T06:05:18.714Z,39.76
2019-02-23T06:06:18.497Z,39.77
2019-02-23T06:07:18.336Z,39.74
2019-02-23T06:08:18.199Z,39.8
2019-02-23T06:09:18.821Z,39.78
2019-02-23T06:10:18.558Z,39.81
2019-02-23T06:11:18.329Z,39.77
2019-02-23T06:12:18.339Z,39.81
2019-02-23T06:13:18.130Z,39.75
2019-02-23T06:14:18.351Z,39.69
2019-02-23T06:15:18.066Z,39.75
2019-02-23T06:16:19.157Z,39.71
2019-02-23T06:17:19.001Z,39.63
2019-02-23T06:18:18.220Z,39.68
2019-02-23T06:19:18.418Z,39.64
2019-02-23T06:20:18.907Z,39.61
2019-02-23T06:21:18.396Z,39.71
2019-02-23T06:22:18.729Z,39.69
2019-02-23T06:23:20.080Z,39.63
2019-02-23T06:24:18.045Z,39.67
2019-02-23T06:25:18.174Z,39.65
2019-02-23T06:26:18.060Z,39.64
2019-02-23T06:27:18.102Z,39.64
2019-02-23T06:28:17.971Z,39.58
2019-02-23T06:29:18.142Z,39.63
2019-02-23T06:30:18.688Z,39.56
2019-02-23T06:31:19.086Z,39.54
2019-02-23T06:32:18.700Z,39.52
2019-02-23T06:33:18.409Z,39.6
2019-02-23T06:34:18.834Z,39.53
2019-02-23T06:35:18.837Z,39.48
2019-02-23T06:36:18.444Z,39.44
2019-02-23T06:37:18.394Z,39.48
2019-02-23T06:38:19.596Z,39.49
2019-02-23T06:39:18.341Z,39.55
2019-02-23T06:40:18.470Z,39.48
2019-02-23T06:41:18.858Z,39.54
2019-02-23T06:42:18.159Z,39.48
2019-02-23T06:43:18.358Z,39.47
2019-02-23T06:44:18.263Z,39.42
2019-02-23T06:45:18.210Z,39.45
2019-02-23T06:46:18.495Z,39.48
2019-02-23T06:47:18.286Z,39.43
2019-02-23T06:48:20.355Z,39.42
2019-02-23T06:49:18.373Z,39.44
2019-02-23T06:50:18.119Z,39.46
2019-02-23T06:51:18.803Z,39.4
2019-02-23T06:52:18.330Z,39.33
2019-02-23T06:53:18.442Z,39.34
2019-02-23T06:54:18.405Z,39.34
2019-02-23T06:55:18.661Z,39.37
2019-02-23T06:56:18.385Z,39.37
2019-02-23T06:57:18.662Z,39.32
2019-02-23T06:58:18.411Z,39.36
2019-02-23T06:59:18.230Z,39.3
2019-02-23T07:00:19.107Z,39.34
2019-02-23T07:01:18.054Z,39.36
2019-02-23T07:02:18.362Z,39.33
2019-02-23T07:03:18.436Z,39.32
2019-02-23T07:04:18.277Z,39.33
2019-02-23T07:05:18.688Z,39.33
2019-02-23T07:06:18.940Z,39.24
2019-02-23T07:07:18.663Z,39.29
2019-02-23T07:08:18.602Z,39.28
2019-02-23T07:09:18.456Z,39.25
2019-02-23T07:10:18.186Z,39.26
2019-02-23T07:11:18.168Z,39.25
2019-02-23T07:12:18.376Z,39.24
2019-02-23T07:13:18.777Z,39.22
2019-02-23T07:14:18.167Z,39.24
2019-02-23T07:15:18.174Z,39.25
2019-02-23T07:16:18.638Z,39.2
2019-02-23T07:17:18.659Z,39.17
2019-02-23T07:18:18.172Z,39.18
2019-02-23T07:19:18.282Z,39.21
2019-02-23T07:20:18.305Z,39.23
2019-02-23T07:21:19.029Z,39.15
2019-02-23T07:22:18.986Z,39.22
2019-02-23T07:23:18.748Z,39.2
2019-02-23T07:24:18.461Z,39.16
2019-02-23T07:25:18.805Z,39.15
2019-02-23T07:26:18.205Z,39.08
2019-02-23T07:27:18.373Z,39.08
2019-02-23T07:28:18.501Z,39.14
2019-02-23T07:29:18.695Z,39.14
2019-02-23T07:30:18.079Z,39.16
2019-02-23T07:31:18.267Z,39.21
2019-02-23T07:32:18.326Z,39.01
2019-02-23T07:33:33.012Z,39.07
2019-02-23T07:34:18.759Z,39.07
2019-02-23T07:35:18.177Z,39.06
2019-02-23T07:36:18.204Z,39.1
2019-02-23T07:37:18.264Z,39.09
2019-02-23T07:38:18.343Z,39.09
2019-02-23T07:39:18.201Z,39.09
2019-02-23T07:40:18.267Z,39.03
2019-02-23T07:41:18.285Z,39.05
2019-02-23T07:42:18.337Z,39.09
2019-02-23T07:43:18.955Z,39.11
2019-02-23T07:44:18.171Z,39
2019-02-23T07:45:18.504Z,39.07
2019-02-23T07:46:18.323Z,39.12
2019-02-23T07:47:18.834Z,38.94
2019-02-23T07:48:19.101Z,39.02
2019-02-23T07:49:19.047Z,38.97
2019-02-23T07:50:18.525Z,39.03
2019-02-23T07:51:18.261Z,39.04
2019-02-23T07:52:26.823Z,38.99
2019-02-23T07:53:18.456Z,38.98
2019-02-23T07:54:18.164Z,38.99
2019-02-23T07:55:18.267Z,38.99
2019-02-23T07:56:18.253Z,38.92
2019-02-23T07:57:18.175Z,38.91
2019-02-23T07:58:18.029Z,38.93
2019-02-23T07:59:18.502Z,39.05
2019-02-23T08:00:18.238Z,38.87
2019-02-23T08:01:18.336Z,38.88
2019-02-23T08:02:18.233Z,38.92
2019-02-23T08:03:18.358Z,38.97
2019-02-23T08:04:18.840Z,38.87
2019-02-23T08:05:20.097Z,38.99
2019-02-23T08:06:19.579Z,38.95
2019-02-23T08:07:18.757Z,38.97
2019-02-23T08:08:19.125Z,38.9
2019-02-23T08:09:18.924Z,38.81
2019-02-23T08:10:18.097Z,38.86
2019-02-23T08:11:20.149Z,38.96
2019-02-23T08:12:17.986Z,38.87
2019-02-23T08:13:18.601Z,38.91
2019-02-23T08:14:18.804Z,38.83
2019-02-23T08:15:18.491Z,38.9
2019-02-23T08:16:18.304Z,38.91
2019-02-23T08:17:18.119Z,38.84
2019-02-23T08:18:18.450Z,38.89
2019-02-23T08:19:18.381Z,38.85
2019-02-23T08:20:18.102Z,38.82
2019-02-23T08:21:18.316Z,38.86
2019-02-23T08:22:18.654Z,38.82
2019-02-23T08:23:18.238Z,38.8
2019-02-23T08:24:18.383Z,38.81
2019-02-23T08:25:18.853Z,38.82
2019-02-23T08:26:18.760Z,38.78
2019-02-23T08:27:18.301Z,38.83
2019-02-23T08:28:18.574Z,38.87
2019-02-23T08:29:18.123Z,38.8
2019-02-23T08:30:18.224Z,38.79
2019-02-23T08:31:18.326Z,38.77
2019-02-23T08:32:18.574Z,38.8
2019-02-23T08:33:18.669Z,38.84
2019-02-23T08:34:18.336Z,38.84
2019-02-23T08:35:19.975Z,38.77
2019-02-23T08:36:18.463Z,38.76
2019-02-23T08:37:18.223Z,38.75
2019-02-23T08:38:18.962Z,38.68
2019-02-23T08:39:18.383Z,38.72
2019-02-23T08:40:18.345Z,38.81
2019-02-23T08:41:18.588Z,38.72
2019-02-23T08:42:18.312Z,38.76
2019-02-23T08:43:20.907Z,38.85
2019-02-23T08:44:18.634Z,38.73
2019-02-23T08:45:18.206Z,38.75
2019-02-23T08:46:18.362Z,38.71
2019-02-23T08:47:19.563Z,38.77
2019-02-23T08:48:18.352Z,38.76
2019-02-23T08:49:18.611Z,38.68
2019-02-23T08:50:18.178Z,38.72
2019-02-23T08:51:18.891Z,38.76
2019-02-23T08:52:18.185Z,38.76
2019-02-23T08:53:18.489Z,38.7
2019-02-23T08:54:18.032Z,38.71
2019-02-23T08:55:18.413Z,38.71
2019-02-23T08:56:18.283Z,38.67
2019-02-23T08:57:18.615Z,38.72
2019-02-23T08:58:18.326Z,38.62
2019-02-23T08:59:18.257Z,38.86
2019-02-23T09:00:19.932Z,38.64
2019-02-23T09:01:18.095Z,38.67
2019-02-23T09:02:18.200Z,38.77
2019-02-23T09:03:18.352Z,38.86
2019-02-23T09:04:18.449Z,38.81
2019-02-23T09:05:17.905Z,38.98
2019-02-23T09:06:18.292Z,38.75
2019-02-23T09:07:20.045Z,38.66
2019-02-23T09:08:18.987Z,38.7
2019-02-23T09:09:18.791Z,38.85
2019-02-23T09:10:18.543Z,38.97
2019-02-23T09:11:19.908Z,39.19
2019-02-23T09:12:18.297Z,39.2
2019-02-23T09:13:18.412Z,39.22
2019-02-23T09:14:18.307Z,39.22
2019-02-23T09:15:18.411Z,39.27
2019-02-23T09:16:18.108Z,39.36
2019-02-23T09:17:18.488Z,39.31
2019-02-23T09:18:18.240Z,39.28
2019-02-23T09:19:19.724Z,39.36
2019-02-23T09:20:29.711Z,39.32
2019-02-23T09:21:18.260Z,39.44
2019-02-23T09:22:18.590Z,39.35
2019-02-23T09:23:18.183Z,39.39
2019-02-23T09:24:18.399Z,39.41
2019-02-23T09:25:18.317Z,39.45
2019-02-23T09:26:18.400Z,39.61
2019-02-23T09:27:18.172Z,39.71
2019-02-23T09:28:18.634Z,39.4
2019-02-23T09:29:18.775Z,39.53
2019-02-23T09:30:19.012Z,39.77
2019-02-23T09:31:19.065Z,39.47
2019-02-23T09:32:18.239Z,39.65
2019-02-23T09:33:18.985Z,39.62
2019-02-23T09:34:18.070Z,40.01
2019-02-23T09:35:18.308Z,40.13
2019-02-23T09:36:18.213Z,39.77
2019-02-23T09:37:18.260Z,39.8
2019-02-23T09:38:18.387Z,40.22
2019-02-23T09:39:18.129Z,39.92
2019-02-23T09:40:19.542Z,40.11
2019-02-23T09:41:18.424Z,39.89
2019-02-23T09:42:18.245Z,39.9
2019-02-23T09:43:18.999Z,39.93
2019-02-23T09:44:18.483Z,40.07
2019-02-23T09:45:18.454Z,40.07
2019-02-23T09:46:17.965Z,39.59
2019-02-23T09:47:18.018Z,39.53
2019-02-23T09:48:18.564Z,39.27
2019-02-23T09:49:18.328Z,39.4
2019-02-23T09:50:18.622Z,40.01
2019-02-23T09:51:17.861Z,39.72
2019-02-23T09:52:17.937Z,39.74
2019-02-23T09:53:18.490Z,39.78
2019-02-23T09:54:18.090Z,39.8
2019-02-23T09:55:18.376Z,39.82
2019-02-23T09:56:18.279Z,39.59
2019-02-23T09:57:18.034Z,39.91
2019-02-23T09:58:19.187Z,39.86
2019-02-23T09:59:18.158Z,39.77
2019-02-23T10:00:18.024Z,39.51
2019-02-23T10:01:18.258Z,39.95
2019-02-23T10:02:18.751Z,39.88
2019-02-23T10:03:18.274Z,40.08
2019-02-23T10:04:18.134Z,40.12
2019-02-23T10:05:18.202Z,40.32
2019-02-23T10:06:18.702Z,40.36
2019-02-23T10:07:18.604Z,40.34
2019-02-23T10:08:18.383Z,40.5
2019-02-23T10:09:18.402Z,39.65
2019-02-23T10:10:18.153Z,40.12
2019-02-23T10:11:18.797Z,39.32
2019-02-23T10:12:18.341Z,39.5
2019-02-23T10:13:18.850Z,39.37
2019-02-23T10:14:18.110Z,39.13
2019-02-23T10:15:18.569Z,39.33
2019-02-23T10:16:18.691Z,39.21
2019-02-23T10:17:18.980Z,39.09
2019-02-23T10:18:18.021Z,39.42
2019-02-23T10:19:18.393Z,39.29
2019-02-23T10:20:18.353Z,39.23
2019-02-23T10:21:19.146Z,39.5
2019-02-23T10:22:18.603Z,39.34
2019-02-23T10:23:22.551Z,39.61
2019-02-23T10:24:18.113Z,39.21
2019-02-23T10:25:18.230Z,39.55
2019-02-23T10:26:18.043Z,39.26
2019-02-23T10:27:18.529Z,39.63
2019-02-23T10:28:18.191Z,39.73
2019-02-23T10:29:18.242Z,39.52
2019-02-23T10:30:18.455Z,39.51
2019-02-23T10:31:18.592Z,39.2
2019-02-23T10:32:18.279Z,39.25
2019-02-23T10:33:18.167Z,39.07
2019-02-23T10:34:18.493Z,39.01
2019-02-23T10:35:19.024Z,39.05
2019-02-23T10:36:20.057Z,39.08
2019-02-23T10:37:18.396Z,39.01
2019-02-23T10:38:18.242Z,39.03
2019-02-23T10:39:18.182Z,38.96
2019-02-23T10:40:18.013Z,38.93
2019-02-23T10:41:18.117Z,38.94
2019-02-23T10:42:18.347Z,38.97
2019-02-23T10:43:18.273Z,38.91
2019-02-23T10:44:18.394Z,38.93
2019-02-23T10:45:18.550Z,38.94
2019-02-23T10:46:17.966Z,38.93
2019-02-23T10:47:18.122Z,38.92
2019-02-23T10:48:18.531Z,38.92
2019-02-23T10:49:18.025Z,38.99
2019-02-23T10:50:18.625Z,38.95
2019-02-23T10:51:18.714Z,38.92
2019-02-23T10:52:18.398Z,38.91
2019-02-23T10:53:18.118Z,38.93
2019-02-23T10:54:18.178Z,38.84
2019-02-23T10:55:18.092Z,38.84
2019-02-23T10:56:18.125Z,38.85
2019-02-23T10:57:19.569Z,38.85
2019-02-23T10:58:18.144Z,38.87
2019-02-23T10:59:18.172Z,38.81
2019-02-23T11:00:18.008Z,38.88
2019-02-23T11:01:18.918Z,38.83
2019-02-23T11:02:18.186Z,38.81
2019-02-23T11:03:18.381Z,38.83
2019-02-23T11:04:18.324Z,38.77
2019-02-23T11:05:18.590Z,38.85
2019-02-23T11:06:18.285Z,38.84
2019-02-23T11:07:19.956Z,38.72
2019-02-23T11:08:18.149Z,38.77
2019-02-23T11:09:18.384Z,38.82
2019-02-23T11:10:18.233Z,38.73
2019-02-23T11:11:17.831Z,38.8
2019-02-23T11:12:17.931Z,38.71
2019-02-23T11:13:18.364Z,38.69
2019-02-23T11:14:18.187Z,38.77
2019-02-23T11:15:18.027Z,38.75
2019-02-23T11:16:17.950Z,38.73
2019-02-23T11:17:18.395Z,38.77
2019-02-23T11:18:19.181Z,38.65
2019-02-23T11:19:18.613Z,38.72
2019-02-23T11:20:18.429Z,38.74
2019-02-23T11:21:18.815Z,38.73
2019-02-23T11:22:18.087Z,38.75
2019-02-23T11:23:18.012Z,38.74
2019-02-23T11:24:18.550Z,38.75
2019-02-23T11:25:18.108Z,38.69
2019-02-23T11:26:18.480Z,38.71
2019-02-23T11:27:18.046Z,38.65
2019-02-23T11:28:17.976Z,38.79
2019-02-23T11:29:18.055Z,38.75
2019-02-23T11:30:18.392Z,38.56
2019-02-23T11:31:18.343Z,38.64
2019-02-23T11:32:18.197Z,38.67
2019-02-23T11:33:18.527Z,38.6
2019-02-23T11:34:18.199Z,38.56
2019-02-23T11:35:18.143Z,38.73
2019-02-23T11:36:18.036Z,38.54
2019-02-23T11:37:18.277Z,38.64
2019-02-23T11:38:18.185Z,38.55
2019-02-23T11:39:18.039Z,38.58
2019-02-23T11:40:19.886Z,38.65
2019-02-23T11:41:18.353Z,38.59
2019-02-23T11:42:17.996Z,38.58
2019-02-23T11:43:18.091Z,38.61
2019-02-23T11:44:18.690Z,38.51
2019-02-23T11:45:18.122Z,38.51
2019-02-23T11:46:18.096Z,38.59
2019-02-23T11:47:18.238Z,38.57
2019-02-23T11:48:18.795Z,38.56
2019-02-23T11:49:18.297Z,38.56
2019-02-23T11:50:18.211Z,38.54
2019-02-23T11:51:18.177Z,38.58
2019-02-23T11:52:18.443Z,38.55
2019-02-23T11:53:18.128Z,38.51
2019-02-23T11:54:18.336Z,38.5
2019-02-23T11:55:18.421Z,38.52
2019-02-23T11:56:18.046Z,38.43
2019-02-23T11:57:18.292Z,38.42
2019-02-23T11:58:20.015Z,38.39
2019-02-23T11:59:18.911Z,38.56
2019-02-23T12:00:18.940Z,38.44
2019-02-23T12:01:18.723Z,38.64
2019-02-23T12:02:18.713Z,38.63
2019-02-23T12:03:18.554Z,38.63
2019-02-23T12:04:17.963Z,38.6
2019-02-23T12:05:18.152Z,38.62
2019-02-23T12:06:18.338Z,38.56
2019-02-23T12:07:18.233Z,38.61
2019-02-23T12:08:18.233Z,38.59
2019-02-23T12:09:18.186Z,38.61
2019-02-23T12:10:18.987Z,38.62
2019-02-23T12:11:18.381Z,38.66
2019-02-23T12:12:18.769Z,38.62
2019-02-23T12:13:19.896Z,38.47
2019-02-23T12:14:18.614Z,38.45
2019-02-23T12:15:18.300Z,38.44
2019-02-23T12:16:18.158Z,38.46
2019-02-23T12:17:18.062Z,38.4
2019-02-23T12:18:18.069Z,38.49
2019-02-23T12:19:18.403Z,38.41
2019-02-23T12:20:18.408Z,38.42
2019-02-23T12:21:18.030Z,38.5
2019-02-23T12:22:18.346Z,38.38
2019-02-23T12:23:19.041Z,38.46
2019-02-23T12:24:17.913Z,38.37
2019-02-23T12:25:18.766Z,38.38
2019-02-23T12:26:19.837Z,38.47
2019-02-23T12:27:18.019Z,38.49
2019-02-23T12:28:18.390Z,38.43
2019-02-23T12:29:18.585Z,38.49
2019-02-23T12:30:18.919Z,38.45
2019-02-23T12:31:18.290Z,38.5
2019-02-23T12:32:18.213Z,38.41
2019-02-23T12:33:18.450Z,38.39
2019-02-23T12:34:18.063Z,38.42
2019-02-23T12:35:18.482Z,38.33
2019-02-23T12:36:18.036Z,38.49
2019-02-23T12:37:18.331Z,38.35
2019-02-23T12:38:18.112Z,38.4
2019-02-23T12:39:18.389Z,38.4
2019-02-23T12:40:17.954Z,38.35
2019-02-23T12:41:19.503Z,38.3
2019-02-23T12:42:18.409Z,38.42
2019-02-23T12:43:18.201Z,38.34
2019-02-23T12:44:18.884Z,38.34
2019-02-23T12:45:18.909Z,38.29
2019-02-23T12:46:17.910Z,38.58
2019-02-23T12:47:18.012Z,38.33
2019-02-23T12:48:18.231Z,38.22
2019-02-23T12:49:18.017Z,38.33
2019-02-23T12:50:18.165Z,38.34
2019-02-23T12:51:18.041Z,38.45
2019-02-23T12:52:18.287Z,38.54
2019-02-23T12:53:18.355Z,38.51
2019-02-23T12:54:19.834Z,38.46
2019-02-23T12:55:18.038Z,38.43